createdAt,value
2022-09-04T00:00:54.879Z,17.06
2022-09-04T00:01:54.885Z,17.01
2022-09-04T00:02:54.857Z,17.08
2022-09-04T00:03:54.948Z,17.01
2022-09-04T00:04:55.064Z,17.08
2022-09-04T00:05:54.822Z,16.94
2022-09-04T00:06:54.812Z,16.93
2022-09-04T00:07:54.798Z,17.01
2022-09-04T00:08:54.823Z,16.94
2022-09-04T00:09:54.798Z,16.91
2022-09-04T00:10:54.766Z,16.86
2022-09-04T00:11:54.753Z,16.86
2022-09-04T00:12:54.743Z,16.89
2022-09-04T00:13:54.731Z,16.86
2022-09-04T00:14:54.740Z,16.87
2022-09-04T00:15:54.711Z,16.83
2022-09-04T00:16:54.826Z,16.78
2022-09-04T00:17:54.690Z,16.86
2022-09-04T00:18:54.699Z,16.74
2022-09-04T00:19:54.683Z,16.72
2022-09-04T00:20:54.679Z,16.72
2022-09-04T00:21:54.790Z,16.72
2022-09-04T00:22:54.631Z,16.76
2022-09-04T00:23:54.621Z,16.75
2022-09-04T00:24:54.634Z,16.74
2022-09-04T00:25:54.660Z,16.75
2022-09-04T00:26:54.587Z,16.69
2022-09-04T00:27:54.903Z,16.68
2022-09-04T00:28:54.561Z,16.76
2022-09-04T00:29:54.551Z,16.74
2022-09-04T00:30:54.593Z,16.68
2022-09-04T00:31:54.532Z,16.61
2022-09-04T00:32:54.519Z,16.72
2022-09-04T00:33:54.509Z,16.58
2022-09-04T00:34:54.538Z,16.74
2022-09-04T00:35:54.490Z,16.74
2022-09-04T00:36:54.477Z,16.57
2022-09-04T00:37:54.462Z,16.61
2022-09-04T00:38:54.576Z,16.61
2022-09-04T00:39:54.494Z,16.60
2022-09-04T00:40:54.449Z,16.56
2022-09-04T00:41:54.418Z,16.56
2022-09-04T00:42:54.627Z,16.57
2022-09-04T00:43:54.396Z,16.54
2022-09-04T00:44:54.426Z,16.43
2022-09-04T00:45:54.390Z,16.47
2022-09-04T00:46:54.364Z,16.41
2022-09-04T00:48:01.842Z,16.43
2022-09-04T00:48:54.342Z,16.46
2022-09-04T00:49:54.329Z,16.43
2022-09-04T00:50:54.342Z,16.38
2022-09-04T00:51:54.304Z,16.47
2022-09-04T00:52:58.238Z,16.41
2022-09-04T00:53:55.279Z,16.41
2022-09-04T00:54:54.277Z,16.36
2022-09-04T00:55:54.534Z,16.50
2022-09-04T00:56:54.248Z,16.33
2022-09-04T00:57:54.239Z,16.36
2022-09-04T00:58:54.249Z,16.29
2022-09-04T00:59:54.286Z,16.33
2022-09-04T01:00:54.257Z,16.29
2022-09-04T01:01:54.329Z,16.29
2022-09-04T01:02:54.197Z,16.31
2022-09-04T01:03:54.172Z,16.28
2022-09-04T01:04:54.161Z,16.28
2022-09-04T01:05:54.147Z,16.21
2022-09-04T01:06:56.426Z,16.28
2022-09-04T01:07:54.128Z,16.26
2022-09-04T01:08:56.378Z,16.29
2022-09-04T01:09:54.110Z,16.29
2022-09-04T01:10:54.628Z,16.31
2022-09-04T01:11:54.103Z,16.21
2022-09-04T01:12:54.087Z,16.28
2022-09-04T01:13:54.061Z,16.24
2022-09-04T01:14:54.078Z,16.21
2022-09-04T01:15:54.036Z,16.29
2022-09-04T01:16:54.293Z,16.20
2022-09-04T01:17:54.573Z,16.20
2022-09-04T01:18:54.019Z,16.21
2022-09-04T01:19:53.993Z,16.16
2022-09-04T01:20:54.004Z,16.21
2022-09-04T01:21:53.971Z,16.24
2022-09-04T01:22:53.959Z,16.26
2022-09-04T01:23:53.945Z,16.21
2022-09-04T01:24:53.954Z,16.29
2022-09-04T01:25:53.928Z,16.23
2022-09-04T01:26:57.593Z,16.28
2022-09-04T01:27:53.973Z,16.31
2022-09-04T01:28:53.895Z,16.24
2022-09-04T01:29:54.231Z,16.26
2022-09-04T01:30:53.866Z,16.28
2022-09-04T01:31:53.983Z,16.21
2022-09-04T01:32:53.842Z,16.24
2022-09-04T01:33:53.859Z,16.26
2022-09-04T01:34:53.863Z,16.23
2022-09-04T01:35:53.849Z,16.28
2022-09-04T01:36:53.807Z,16.28
2022-09-04T01:37:53.794Z,16.36
2022-09-04T01:38:53.777Z,16.26
2022-09-04T01:39:53.807Z,16.23
2022-09-04T01:40:53.781Z,16.33
2022-09-04T01:41:53.746Z,16.24
2022-09-04T01:42:53.737Z,16.28
2022-09-04T01:43:53.724Z,16.35
2022-09-04T01:44:53.714Z,16.23
2022-09-04T01:45:56.095Z,16.23
2022-09-04T01:46:54.647Z,16.24
2022-09-04T01:47:53.682Z,16.28
2022-09-04T01:48:53.666Z,16.31
2022-09-04T01:49:53.658Z,16.24
2022-09-04T01:50:53.758Z,16.31
2022-09-04T01:51:53.632Z,16.26
2022-09-04T01:52:53.634Z,16.24
2022-09-04T01:53:53.609Z,16.26
2022-09-04T01:54:53.598Z,16.20
2022-09-04T01:55:55.963Z,16.20
2022-09-04T01:56:53.579Z,16.20
2022-09-04T01:57:55.277Z,16.21
2022-09-04T01:58:53.559Z,16.20
2022-09-04T01:59:53.954Z,16.20
2022-09-04T02:00:53.722Z,16.16
2022-09-04T02:01:53.808Z,16.17
2022-09-04T02:02:53.653Z,16.20
2022-09-04T02:03:56.710Z,16.20
2022-09-04T02:04:53.490Z,16.12
2022-09-04T02:05:53.622Z,16.12
2022-09-04T02:06:53.463Z,16.12
2022-09-04T02:07:53.494Z,16.02
2022-09-04T02:08:53.440Z,16.00
2022-09-04T02:09:54.047Z,15.97
2022-09-04T02:10:53.421Z,15.94
2022-09-04T02:11:56.887Z,15.98
2022-09-04T02:12:53.438Z,15.98
2022-09-04T02:13:53.386Z,16.01
2022-09-04T02:14:53.376Z,15.94
2022-09-04T02:15:53.363Z,15.94
2022-09-04T02:16:53.353Z,15.91
2022-09-04T02:17:53.382Z,15.90
2022-09-04T02:18:53.821Z,15.88
2022-09-04T02:19:53.322Z,15.90
2022-09-04T02:20:53.308Z,15.91
2022-09-04T02:21:53.445Z,15.92
2022-09-04T02:22:54.176Z,15.82
2022-09-04T02:23:53.357Z,15.86
2022-09-04T02:24:53.297Z,15.80
2022-09-04T02:25:53.305Z,15.84
2022-09-04T02:26:57.856Z,15.80
2022-09-04T02:27:53.229Z,15.77
2022-09-04T02:28:53.219Z,15.80
2022-09-04T02:29:53.213Z,15.80
2022-09-04T02:30:54.411Z,15.83
2022-09-04T02:31:53.271Z,15.79
2022-09-04T02:32:53.248Z,15.80
2022-09-04T02:33:53.248Z,15.76
2022-09-04T02:34:53.146Z,15.75
2022-09-04T02:35:53.278Z,15.75
2022-09-04T02:36:53.128Z,15.79
2022-09-04T02:37:53.137Z,15.82
2022-09-04T02:38:53.102Z,15.82
2022-09-04T02:39:53.142Z,15.77
2022-09-04T02:40:53.079Z,15.77
2022-09-04T02:41:53.306Z,15.77
2022-09-04T02:42:53.066Z,15.76
2022-09-04T02:43:53.061Z,15.79
2022-09-04T02:44:53.031Z,15.79
2022-09-04T02:45:53.068Z,15.79
2022-09-04T02:46:53.031Z,15.82
2022-09-04T02:47:53.019Z,15.77
2022-09-04T02:48:53.082Z,15.79
2022-09-04T02:49:52.977Z,15.76
2022-09-04T02:50:53.845Z,15.75
2022-09-04T02:51:52.957Z,15.77
2022-09-04T02:52:52.944Z,15.83
2022-09-04T02:53:52.934Z,15.82
2022-09-04T02:54:52.917Z,15.75
2022-09-04T02:55:52.923Z,15.72
2022-09-04T02:56:53.277Z,15.77
2022-09-04T02:57:52.889Z,15.84
2022-09-04T02:58:52.874Z,15.82
2022-09-04T02:59:52.867Z,15.83
2022-09-04T03:00:52.942Z,15.82
2022-09-04T03:01:52.876Z,15.77
2022-09-04T03:02:52.830Z,15.79
2022-09-04T03:03:52.824Z,15.82
2022-09-04T03:04:52.821Z,15.80
2022-09-04T03:05:52.799Z,15.77
2022-09-04T03:06:52.782Z,15.73
2022-09-04T03:07:52.774Z,15.88
2022-09-04T03:08:53.413Z,15.76
2022-09-04T03:09:52.799Z,15.79
2022-09-04T03:10:52.740Z,15.77
2022-09-04T03:11:53.686Z,15.83
2022-09-04T03:12:52.712Z,15.77
2022-09-04T03:13:52.706Z,15.76
2022-09-04T03:14:52.717Z,15.73
2022-09-04T03:15:53.924Z,15.73
2022-09-04T03:16:52.667Z,15.68
2022-09-04T03:17:53.931Z,15.70
2022-09-04T03:18:52.645Z,15.65
2022-09-04T03:19:52.633Z,15.72
2022-09-04T03:20:52.655Z,15.64
2022-09-04T03:21:52.612Z,15.59
2022-09-04T03:22:52.664Z,15.67
2022-09-04T03:23:52.590Z,15.64
2022-09-04T03:24:52.576Z,15.61
2022-09-04T03:25:52.568Z,15.65
2022-09-04T03:26:55.420Z,15.55
2022-09-04T03:27:52.541Z,15.55
2022-09-04T03:28:52.571Z,15.52
2022-09-04T03:29:52.544Z,15.52
2022-09-04T03:30:52.509Z,15.47
2022-09-04T03:31:52.582Z,15.52
2022-09-04T03:32:52.483Z,15.44
2022-09-04T03:33:52.473Z,15.43
2022-09-04T03:34:52.476Z,15.47
2022-09-04T03:35:52.454Z,15.37
2022-09-04T03:36:52.439Z,15.37
2022-09-04T03:37:52.448Z,15.43
2022-09-04T03:38:52.414Z,15.43
2022-09-04T03:39:52.495Z,15.43
2022-09-04T03:40:52.394Z,15.42
2022-09-04T03:41:52.381Z,15.37
2022-09-04T03:42:52.387Z,15.39
2022-09-04T03:43:52.367Z,15.35
2022-09-04T03:44:52.525Z,15.35
2022-09-04T03:45:52.552Z,15.31
2022-09-04T03:46:52.433Z,15.31
2022-09-04T03:47:52.314Z,15.27
2022-09-04T03:48:52.303Z,15.29
2022-09-04T03:49:52.288Z,15.31
2022-09-04T03:50:52.281Z,15.22
2022-09-04T03:51:52.265Z,15.27
2022-09-04T03:52:53.810Z,15.21
2022-09-04T03:53:52.247Z,15.24
2022-09-04T03:54:52.230Z,15.25
2022-09-04T03:55:52.225Z,15.19
2022-09-04T03:56:52.214Z,15.22
2022-09-04T03:57:52.214Z,15.17
2022-09-04T03:58:52.186Z,15.09
2022-09-04T03:59:52.175Z,15.10
2022-09-04T04:00:52.238Z,15.07
2022-09-04T04:01:52.153Z,15.09
2022-09-04T04:02:52.336Z,15.03
2022-09-04T04:03:52.131Z,15.03
2022-09-04T04:04:52.119Z,15.03
2022-09-04T04:05:52.108Z,14.94
2022-09-04T04:06:52.094Z,14.99
2022-09-04T04:07:52.105Z,14.85
2022-09-04T04:08:52.076Z,14.94
2022-09-04T04:09:52.060Z,14.89
2022-09-04T04:10:52.050Z,14.88
2022-09-04T04:11:52.041Z,14.92
2022-09-04T04:12:52.041Z,14.89
2022-09-04T04:13:52.079Z,14.92
2022-09-04T04:14:52.009Z,14.97
2022-09-04T04:15:52.057Z,14.88
2022-09-04T04:16:56.151Z,14.88
2022-09-04T04:17:52.089Z,14.89
2022-09-04T04:18:51.971Z,14.89
2022-09-04T04:19:51.958Z,14.82
2022-09-04T04:20:51.952Z,14.84
2022-09-04T04:21:51.933Z,14.78
2022-09-04T04:22:51.914Z,14.82
2022-09-04T04:23:52.288Z,14.79
2022-09-04T04:24:51.891Z,14.78
2022-09-04T04:25:52.578Z,14.77
2022-09-04T04:26:54.852Z,14.81
2022-09-04T04:27:51.856Z,14.77
2022-09-04T04:28:51.866Z,14.73
2022-09-04T04:29:51.839Z,14.77
2022-09-04T04:30:52.702Z,14.65
2022-09-04T04:31:51.814Z,14.66
2022-09-04T04:32:51.805Z,14.69
2022-09-04T04:33:51.826Z,14.65
2022-09-04T04:34:51.855Z,14.65
2022-09-04T04:35:51.778Z,14.66
2022-09-04T04:36:51.826Z,14.63
2022-09-04T04:37:51.855Z,14.63
2022-09-04T04:38:51.739Z,14.50
2022-09-04T04:39:51.784Z,14.51
2022-09-04T04:40:51.716Z,14.58
2022-09-04T04:41:51.729Z,14.53
2022-09-04T04:42:51.691Z,14.53
2022-09-04T04:43:51.686Z,14.60
2022-09-04T04:44:51.671Z,14.51
2022-09-04T04:45:51.665Z,14.51
2022-09-04T04:46:51.777Z,14.48
2022-09-04T04:47:51.671Z,14.48
2022-09-04T04:48:51.627Z,14.60
2022-09-04T04:49:51.614Z,14.63
2022-09-04T04:50:51.604Z,14.53
2022-09-04T04:51:53.467Z,14.50
2022-09-04T04:52:51.581Z,14.54
2022-09-04T04:53:51.572Z,14.43
2022-09-04T04:54:51.562Z,14.53
2022-09-04T04:55:51.892Z,14.59
2022-09-04T04:56:51.543Z,14.59
2022-09-04T04:57:51.531Z,14.53
2022-09-04T04:58:51.511Z,14.55
2022-09-04T04:59:51.504Z,14.58
2022-09-04T05:00:51.508Z,14.50
2022-09-04T05:01:51.642Z,14.60
2022-09-04T05:02:51.580Z,14.63
2022-09-04T05:03:51.458Z,14.55
2022-09-04T05:04:51.446Z,14.51
2022-09-04T05:05:51.451Z,14.58
2022-09-04T05:06:51.530Z,14.47
2022-09-04T05:07:51.409Z,14.62
2022-09-04T05:08:51.399Z,14.51
2022-09-04T05:09:51.392Z,14.48
2022-09-04T05:10:51.447Z,14.63
2022-09-04T05:11:51.385Z,14.62
2022-09-04T05:12:51.389Z,14.51
2022-09-04T05:13:51.689Z,14.55
2022-09-04T05:14:51.335Z,14.51
2022-09-04T05:16:08.321Z,14.51
2022-09-04T05:16:55.840Z,14.59
2022-09-04T05:17:51.295Z,14.59
2022-09-04T05:18:51.286Z,14.58
2022-09-04T05:19:53.593Z,14.59
2022-09-04T05:20:51.263Z,14.63
2022-09-04T05:21:51.254Z,14.65
2022-09-04T05:22:51.244Z,14.59
2022-09-04T05:23:51.468Z,14.66
2022-09-04T05:24:54.158Z,14.70
2022-09-04T05:25:51.207Z,14.72
2022-09-04T05:26:51.196Z,14.84
2022-09-04T05:27:51.235Z,14.86
2022-09-04T05:28:51.173Z,14.94
2022-09-04T05:29:51.212Z,14.92
2022-09-04T05:30:51.185Z,15.02
2022-09-04T05:31:51.134Z,15.10
2022-09-04T05:32:51.128Z,15.10
2022-09-04T05:33:51.115Z,15.25
2022-09-04T05:34:51.102Z,15.27
2022-09-04T05:35:53.019Z,15.40
2022-09-04T05:36:51.080Z,15.36
2022-09-04T05:37:51.063Z,15.46
2022-09-04T05:38:51.719Z,15.42
2022-09-04T05:39:51.216Z,15.42
2022-09-04T05:40:51.035Z,15.49
2022-09-04T05:41:51.025Z,15.54
2022-09-04T05:42:51.013Z,15.62
2022-09-04T05:43:51.022Z,15.68
2022-09-04T05:44:51.333Z,15.73
2022-09-04T05:45:50.997Z,15.77
2022-09-04T05:46:51.857Z,15.88
2022-09-04T05:47:50.954Z,15.94
2022-09-04T05:48:50.944Z,15.95
2022-09-04T05:49:50.947Z,16.08
2022-09-04T05:50:50.918Z,16.16
2022-09-04T05:51:50.915Z,16.31
2022-09-04T05:52:50.900Z,16.26
2022-09-04T05:53:55.465Z,16.33
2022-09-04T05:54:50.880Z,16.49
2022-09-04T05:55:50.992Z,16.54
2022-09-04T05:56:50.851Z,16.74
2022-09-04T05:57:50.845Z,16.96
2022-09-04T05:58:50.832Z,17.09
2022-09-04T05:59:52.042Z,17.12
2022-09-04T06:00:50.812Z,17.29
2022-09-04T06:01:52.259Z,17.30
2022-09-04T06:02:50.792Z,17.42
2022-09-04T06:03:50.770Z,17.64
2022-09-04T06:04:50.782Z,17.79
2022-09-04T06:05:50.754Z,17.79
2022-09-04T06:06:50.741Z,17.94
2022-09-04T06:07:50.728Z,18.23
2022-09-04T06:08:50.738Z,18.31
2022-09-04T06:09:50.706Z,18.47
2022-09-04T06:10:50.756Z,18.58
2022-09-04T06:11:50.683Z,18.63
2022-09-04T06:12:50.673Z,18.92
2022-09-04T06:13:50.679Z,19.08
2022-09-04T06:14:50.654Z,19.14
2022-09-04T06:15:50.692Z,19.19
2022-09-04T06:16:50.748Z,19.47
2022-09-04T06:17:50.618Z,19.99
2022-09-04T06:18:50.625Z,20.14
2022-09-04T06:19:50.590Z,20.28
2022-09-04T06:20:50.585Z,20.66
2022-09-04T06:21:50.572Z,21.24
2022-09-04T06:22:55.056Z,21.30
2022-09-04T06:23:51.763Z,21.54
2022-09-04T06:24:50.540Z,21.96
2022-09-04T06:25:50.524Z,22.14
2022-09-04T06:26:50.517Z,21.91
2022-09-04T06:27:50.524Z,21.66
2022-09-04T06:28:50.496Z,21.55
2022-09-04T06:29:50.576Z,21.42
2022-09-04T06:30:50.527Z,21.33
2022-09-04T06:31:50.460Z,20.85
2022-09-04T06:32:53.143Z,20.41
2022-09-04T06:33:50.435Z,20.04
2022-09-04T06:34:50.428Z,19.51
2022-09-04T06:35:51.201Z,19.29
2022-09-04T06:36:50.427Z,19.08
2022-09-04T06:37:50.436Z,19.24
2022-09-04T06:38:50.382Z,19.16
2022-09-04T06:39:50.402Z,19.31
2022-09-04T06:40:50.360Z,19.56
2022-09-04T06:41:50.376Z,20.21
2022-09-04T06:42:50.340Z,20.65
2022-09-04T06:43:50.321Z,21.35
2022-09-04T06:44:50.315Z,22.25
2022-09-04T06:45:50.300Z,23.20
2022-09-04T06:46:50.328Z,23.46
2022-09-04T06:47:50.299Z,23.27
2022-09-04T06:50:27.033Z,24.26
2022-09-04T06:51:27.374Z,24.93
2022-09-04T06:52:27.021Z,24.80
2022-09-04T06:53:27.001Z,23.99
2022-09-04T06:54:27.008Z,24.43
2022-09-04T06:55:27.973Z,25.35
2022-09-04T06:56:26.986Z,25.80
2022-09-04T06:57:27.018Z,26.33
2022-09-04T06:58:26.950Z,26.75
2022-09-04T06:59:27.270Z,27.17
2022-09-04T07:00:26.918Z,27.60
2022-09-04T07:01:27.933Z,27.89
2022-09-04T07:02:27.200Z,28.45
2022-09-04T07:03:26.886Z,28.70
2022-09-04T07:04:26.877Z,28.76
2022-09-04T07:05:26.864Z,28.49
2022-09-04T07:06:28.577Z,28.47
2022-09-04T07:07:26.867Z,28.25
2022-09-04T07:08:26.833Z,27.70
2022-09-04T07:09:26.820Z,28.15
2022-09-04T07:10:26.809Z,28.81
2022-09-04T07:11:26.957Z,29.54
2022-09-04T07:12:27.068Z,29.72
2022-09-04T07:13:26.779Z,30.09
2022-09-04T07:14:26.762Z,30.25
2022-09-04T07:15:26.805Z,30.24
2022-09-04T07:16:28.661Z,29.68
2022-09-04T07:17:26.731Z,29.47
2022-09-04T07:18:26.738Z,29.54
2022-09-04T07:19:26.714Z,29.60
2022-09-04T07:20:26.695Z,29.81
2022-09-04T07:21:28.609Z,29.90
2022-09-04T07:22:26.680Z,30.47
2022-09-04T07:23:26.667Z,31.34
2022-09-04T07:24:26.657Z,32.07
2022-09-04T07:25:26.686Z,32.63
2022-09-04T07:26:26.631Z,31.37
2022-09-04T07:27:26.622Z,30.21
2022-09-04T07:28:26.613Z,29.53
2022-09-04T07:29:26.667Z,30.25
2022-09-04T07:30:26.590Z,31.15
2022-09-04T07:31:26.634Z,31.78
2022-09-04T07:32:26.607Z,32.09
2022-09-04T07:33:26.705Z,31.40
2022-09-04T07:34:26.904Z,31.51
2022-09-04T07:35:26.545Z,31.90
2022-09-04T07:36:29.718Z,32.12
2022-09-04T07:37:27.515Z,31.93
2022-09-04T07:38:26.504Z,31.28
2022-09-04T07:39:27.252Z,31.40
2022-09-04T07:40:27.981Z,32.21
2022-09-04T07:41:26.473Z,32.45
2022-09-04T07:42:26.463Z,32.82
2022-09-04T07:43:26.455Z,33.52
2022-09-04T07:44:26.456Z,33.87
2022-09-04T07:45:26.434Z,33.84
2022-09-04T07:46:26.534Z,34.03
2022-09-04T07:47:26.412Z,34.20
2022-09-04T07:48:26.581Z,33.92
2022-09-04T07:49:26.403Z,33.22
2022-09-04T07:50:26.733Z,33.07
2022-09-04T07:51:26.369Z,33.02
2022-09-04T07:52:26.357Z,33.30
2022-09-04T07:53:26.345Z,33.59
2022-09-04T07:54:26.611Z,33.94
2022-09-04T07:55:26.324Z,33.39
2022-09-04T07:56:26.317Z,32.93
2022-09-04T07:57:26.313Z,33.05
2022-09-04T07:58:26.358Z,32.59
2022-09-04T07:59:26.306Z,32.14
2022-09-04T08:00:26.270Z,31.47
2022-09-04T08:01:26.320Z,32.56
2022-09-04T08:02:26.266Z,33.61
2022-09-04T08:03:26.548Z,34.08
2022-09-04T08:04:26.271Z,34.75
2022-09-04T08:05:26.219Z,35.15
2022-09-04T08:06:26.206Z,34.85
2022-09-04T08:07:26.850Z,35.24
2022-09-04T08:08:26.363Z,34.75
2022-09-04T08:09:26.200Z,34.85
2022-09-04T08:10:26.163Z,34.20
2022-09-04T08:11:26.157Z,33.96
2022-09-04T08:12:26.159Z,33.47
2022-09-04T08:13:32.363Z,33.79
2022-09-04T08:14:26.163Z,34.11
2022-09-04T08:15:26.165Z,33.31
2022-09-04T08:16:26.148Z,33.31
2022-09-04T08:17:26.096Z,33.67
2022-09-04T08:18:26.144Z,33.31
2022-09-04T08:19:26.075Z,32.78
2022-09-04T08:20:26.230Z,33.61
2022-09-04T08:21:26.053Z,33.80
2022-09-04T08:22:28.322Z,33.39
2022-09-04T08:23:26.051Z,33.89
2022-09-04T08:24:27.053Z,34.30
2022-09-04T08:25:26.006Z,33.32
2022-09-04T08:26:26.003Z,33.81
2022-09-04T08:27:25.994Z,34.21
2022-09-04T08:28:26.167Z,34.70
2022-09-04T08:29:25.971Z,35.64
2022-09-04T08:30:25.974Z,35.19
2022-09-04T08:31:26.019Z,34.08
2022-09-04T08:32:26.655Z,33.22
2022-09-04T08:33:26.949Z,33.08
2022-09-04T08:34:25.919Z,33.49
2022-09-04T08:35:25.908Z,33.05
2022-09-04T08:36:25.899Z,33.39
2022-09-04T08:37:26.219Z,33.08
2022-09-04T08:38:26.018Z,32.77
2022-09-04T08:39:27.383Z,32.89
2022-09-04T08:40:25.896Z,32.55
2022-09-04T08:41:25.932Z,32.63
2022-09-04T08:42:25.832Z,32.16
2022-09-04T08:43:25.828Z,32.96
2022-09-04T08:44:27.518Z,33.81
2022-09-04T08:45:25.835Z,34.45
2022-09-04T08:46:28.762Z,35.22
2022-09-04T08:47:25.784Z,35.66
2022-09-04T08:48:26.032Z,36.51
2022-09-04T08:49:25.764Z,37.11
2022-09-04T08:50:25.771Z,37.51
2022-09-04T08:51:25.743Z,37.29
2022-09-04T08:52:25.847Z,37.58
2022-09-04T08:53:37.870Z,37.70
2022-09-04T08:54:25.723Z,38.04
2022-09-04T08:55:25.704Z,37.72
2022-09-04T08:56:26.036Z,37.83
2022-09-04T08:57:25.684Z,38.23
2022-09-04T08:58:25.921Z,38.45
2022-09-04T08:59:25.661Z,37.60
2022-09-04T09:00:25.649Z,36.96
2022-09-04T09:01:25.735Z,36.61
2022-09-04T09:02:25.732Z,35.82
2022-09-04T09:03:25.646Z,35.60
2022-09-04T09:04:25.607Z,35.53
2022-09-04T09:05:25.595Z,36.07
2022-09-04T09:06:25.608Z,37.10
2022-09-04T09:07:25.582Z,38.09
2022-09-04T09:08:29.710Z,38.79
2022-09-04T09:09:26.566Z,39.24
2022-09-04T09:10:25.552Z,39.65
2022-09-04T09:11:25.560Z,38.27
2022-09-04T09:12:25.552Z,38.52
2022-09-04T09:13:25.531Z,38.80
2022-09-04T09:14:25.507Z,39.15
2022-09-04T09:15:25.497Z,39.51
2022-09-04T09:16:25.545Z,38.80
2022-09-04T09:17:29.989Z,38.54
2022-09-04T09:18:26.468Z,38.36
2022-09-04T09:19:25.481Z,38.76
2022-09-04T09:20:25.449Z,38.97
2022-09-04T09:21:25.442Z,39.30
2022-09-04T09:22:25.446Z,40.08
2022-09-04T09:23:25.480Z,40.43
2022-09-04T09:24:25.413Z,40.31
2022-09-04T09:25:25.397Z,40.23
2022-09-04T09:26:26.444Z,39.68
2022-09-04T09:27:25.404Z,37.99
2022-09-04T09:28:25.368Z,37.49
2022-09-04T09:29:25.363Z,37.02
2022-09-04T09:30:25.467Z,37.32
2022-09-04T09:31:25.338Z,37.30
2022-09-04T09:32:25.384Z,37.86
2022-09-04T09:33:25.454Z,38.28
2022-09-04T09:34:25.309Z,38.80
2022-09-04T09:35:25.338Z,39.36
2022-09-04T09:36:25.296Z,39.90
2022-09-04T09:37:25.504Z,40.08
2022-09-04T09:38:25.287Z,40.38
2022-09-04T09:39:25.282Z,41.07
2022-09-04T09:40:25.281Z,41.47
2022-09-04T09:41:25.244Z,41.19
2022-09-04T09:42:25.267Z,40.96
2022-09-04T09:43:25.765Z,40.81
2022-09-04T09:44:25.221Z,39.75
2022-09-04T09:45:25.208Z,38.76
2022-09-04T09:46:25.224Z,38.86
2022-09-04T09:47:25.321Z,38.57
2022-09-04T09:48:25.180Z,38.49
2022-09-04T09:49:25.174Z,38.79
2022-09-04T09:50:25.157Z,38.08
2022-09-04T09:51:31.454Z,37.17
2022-09-04T09:52:25.136Z,36.58
2022-09-04T09:53:25.190Z,36.77
2022-09-04T09:54:25.119Z,37.28
2022-09-04T09:55:25.113Z,38.28
2022-09-04T09:56:25.111Z,38.99
2022-09-04T09:57:27.313Z,39.96
2022-09-04T09:58:26.075Z,40.88
2022-09-04T09:59:25.088Z,40.53
2022-09-04T10:00:25.891Z,40.59
2022-09-04T10:01:25.215Z,40.87
2022-09-04T10:02:25.129Z,41.07
2022-09-04T10:03:25.128Z,39.63
2022-09-04T10:04:25.049Z,38.31
2022-09-04T10:05:25.016Z,38.15
2022-09-04T10:06:25.006Z,38.74
2022-09-04T10:07:25.017Z,39.53
2022-09-04T10:08:35.479Z,39.74
2022-09-04T10:09:25.968Z,40.00
2022-09-04T10:10:24.971Z,40.20
2022-09-04T10:11:24.958Z,40.31
2022-09-04T10:12:24.968Z,40.16
2022-09-04T10:13:25.009Z,40.78
2022-09-04T10:14:25.317Z,39.75
2022-09-04T10:15:24.920Z,39.49
2022-09-04T10:16:24.972Z,38.45
2022-09-04T10:17:24.915Z,38.61
2022-09-04T10:18:24.901Z,39.34
2022-09-04T10:19:24.883Z,40.11
2022-09-04T10:20:24.878Z,40.90
2022-09-04T10:21:24.862Z,40.58
2022-09-04T10:22:24.865Z,39.48
2022-09-04T10:23:25.195Z,38.79
2022-09-04T10:24:24.830Z,39.09
2022-09-04T10:25:24.826Z,40.04
2022-09-04T10:26:24.808Z,38.91
2022-09-04T10:27:24.821Z,38.43
2022-09-04T10:28:24.800Z,38.87
2022-09-04T10:29:24.786Z,39.46
2022-09-04T10:30:24.829Z,40.00
2022-09-04T10:31:24.781Z,39.90
2022-09-04T10:32:24.756Z,39.03
2022-09-04T10:33:24.946Z,38.82
2022-09-04T10:34:24.737Z,38.68
2022-09-04T10:35:24.762Z,39.25
2022-09-04T10:36:24.858Z,39.93
2022-09-04T10:37:24.707Z,40.65
2022-09-04T10:38:24.695Z,40.40
2022-09-04T10:39:24.699Z,40.33
2022-09-04T10:40:24.795Z,40.81
2022-09-04T10:41:24.669Z,41.06
2022-09-04T10:42:24.659Z,41.77
2022-09-04T10:43:24.788Z,41.66
2022-09-04T10:44:24.637Z,40.59
2022-09-04T10:45:24.656Z,40.56
2022-09-04T10:46:24.655Z,40.73
2022-09-04T10:47:24.612Z,40.46
2022-09-04T10:48:28.506Z,40.59
2022-09-04T10:49:24.608Z,40.65
2022-09-04T10:50:24.582Z,40.53
2022-09-04T10:51:24.615Z,39.86
2022-09-04T10:52:24.573Z,38.65
2022-09-04T10:53:24.650Z,38.65
2022-09-04T10:54:24.543Z,37.70
2022-09-04T10:55:24.543Z,37.13
2022-09-04T10:56:24.524Z,35.22
2022-09-04T10:57:24.564Z,35.73
2022-09-04T10:58:24.508Z,36.08
2022-09-04T10:59:24.514Z,36.62
2022-09-04T11:00:24.487Z,36.61
2022-09-04T11:01:24.593Z,36.39
2022-09-04T11:02:24.505Z,37.03
2022-09-04T11:03:24.561Z,37.20
2022-09-04T11:04:24.458Z,37.58
2022-09-04T11:05:24.441Z,37.15
2022-09-04T11:06:24.463Z,36.74
2022-09-04T11:07:28.163Z,36.18
2022-09-04T11:08:24.415Z,36.31
2022-09-04T11:09:24.464Z,36.89
2022-09-04T11:10:24.412Z,37.39
2022-09-04T11:11:24.405Z,37.37
2022-09-04T11:12:24.378Z,37.39
2022-09-04T11:13:24.366Z,37.07
2022-09-04T11:14:24.916Z,36.58
2022-09-04T11:15:24.345Z,35.05
2022-09-04T11:16:24.458Z,34.51
2022-09-04T11:17:24.617Z,34.57
2022-09-04T11:18:24.350Z,34.30
2022-09-04T11:19:24.326Z,33.22
2022-09-04T11:20:24.320Z,32.80
2022-09-04T11:21:24.287Z,32.65
2022-09-04T11:22:24.281Z,32.65
2022-09-04T11:23:24.364Z,32.11
2022-09-04T11:24:24.263Z,31.36
2022-09-04T11:25:24.265Z,30.23
2022-09-04T11:26:24.265Z,30.37
2022-09-04T11:27:24.314Z,31.55
2022-09-04T11:28:24.221Z,32.58
2022-09-04T11:29:24.211Z,32.87
2022-09-04T11:30:24.226Z,32.70
2022-09-04T11:31:24.433Z,32.59
2022-09-04T11:32:24.182Z,32.74
2022-09-04T11:33:24.365Z,33.11
2022-09-04T11:34:24.164Z,32.46
2022-09-04T11:35:24.167Z,31.70
2022-09-04T11:36:24.145Z,32.29
2022-09-04T11:37:24.137Z,32.92
2022-09-04T11:38:24.119Z,33.24
2022-09-04T11:39:24.154Z,33.52
2022-09-04T11:40:24.132Z,34.33
2022-09-04T11:41:24.094Z,34.90
2022-09-04T11:42:24.094Z,35.34
2022-09-04T11:43:24.081Z,34.67
2022-09-04T11:44:24.072Z,33.80
2022-09-04T11:45:24.103Z,33.95
2022-09-04T11:46:24.046Z,33.65
2022-09-04T11:47:24.033Z,33.59
2022-09-04T11:48:24.059Z,33.76
2022-09-04T11:49:24.015Z,33.39
2022-09-04T11:50:24.011Z,33.43
2022-09-04T11:51:24.001Z,33.77
2022-09-04T11:52:23.991Z,34.21
2022-09-04T11:53:24.146Z,34.21
2022-09-04T11:54:23.971Z,34.05
2022-09-04T11:55:23.955Z,33.45
2022-09-04T11:56:23.955Z,33.08
2022-09-04T11:57:23.953Z,33.01
2022-09-04T11:58:23.930Z,32.82
2022-09-04T11:59:23.917Z,32.64
2022-09-04T12:00:23.921Z,32.82
2022-09-04T12:01:23.902Z,33.57
2022-09-04T12:02:23.997Z,34.13
2022-09-04T12:03:24.035Z,34.35
2022-09-04T12:04:23.945Z,34.24
2022-09-04T12:05:23.867Z,34.40
2022-09-04T12:06:23.869Z,34.55
2022-09-04T12:07:23.840Z,33.58
2022-09-04T12:08:23.834Z,32.74
2022-09-04T12:09:23.857Z,33.11
2022-09-04T12:10:23.843Z,32.33
2022-09-04T12:11:23.806Z,31.52
2022-09-04T12:12:23.809Z,31.31
2022-09-04T12:13:23.793Z,31.37
2022-09-04T12:14:23.802Z,31.56
2022-09-04T12:15:23.776Z,31.25
2022-09-04T12:16:24.087Z,31.07
2022-09-04T12:17:23.750Z,31.25
2022-09-04T12:18:23.753Z,31.59
2022-09-04T12:19:23.750Z,31.78
2022-09-04T12:20:23.808Z,31.81
2022-09-04T12:21:23.711Z,31.37
2022-09-04T12:22:23.705Z,30.59
2022-09-04T12:23:23.716Z,29.95
2022-09-04T12:24:23.701Z,29.76
2022-09-04T12:25:23.676Z,29.63
2022-09-04T12:26:23.663Z,29.49
2022-09-04T12:27:23.652Z,29.39
2022-09-04T12:28:23.644Z,29.27
2022-09-04T12:29:23.669Z,29.57
2022-09-04T12:30:23.632Z,30.13
2022-09-04T12:31:23.625Z,30.61
2022-09-04T12:32:23.599Z,30.25
2022-09-04T12:33:23.592Z,30.02
2022-09-04T12:34:24.585Z,29.94
2022-09-04T12:35:23.570Z,29.94
2022-09-04T12:36:23.567Z,29.79
2022-09-04T12:37:23.628Z,29.95
2022-09-04T12:38:23.547Z,30.02
2022-09-04T12:39:23.600Z,30.19
2022-09-04T12:40:23.539Z,30.50
2022-09-04T12:41:23.512Z,30.70
2022-09-04T12:42:23.499Z,30.99
2022-09-04T12:43:23.498Z,31.12
2022-09-04T12:44:23.485Z,31.00
2022-09-04T12:45:23.526Z,31.03
2022-09-04T12:46:24.213Z,30.90
2022-09-04T12:47:23.448Z,30.39
2022-09-04T12:48:23.448Z,29.87
2022-09-04T12:49:31.496Z,29.69
2022-09-04T12:50:23.443Z,29.66
2022-09-04T12:51:23.416Z,29.75
2022-09-04T12:52:23.409Z,29.95
2022-09-04T12:53:23.509Z,30.05
2022-09-04T12:54:23.409Z,30.09